createdAt,value
2023-06-19T00:00:24.537Z,101419.31
2023-06-19T00:03:49.287Z,101421.72
2023-06-19T00:07:12.213Z,101410.44
2023-06-19T00:10:36.228Z,101408.59
2023-06-19T00:14:00.284Z,101397.63
2023-06-19T00:17:27.288Z,101391.03
2023-06-19T00:20:55.209Z,101403.50
2023-06-19T00:24:19.257Z,101404.03
2023-06-19T00:27:42.228Z,101388.09
2023-06-19T00:31:06.285Z,101397.94
2023-06-19T00:34:33.195Z,101399.00
2023-06-19T00:37:56.268Z,101398.31
2023-06-19T00:41:20.231Z,101392.88
2023-06-19T00:44:43.269Z,101375.44
2023-06-19T00:48:06.265Z,101381.47
2023-06-19T00:51:30.254Z,101380.94
2023-06-19T00:54:55.248Z,101375.25
2023-06-19T00:58:19.219Z,101367.88
2023-06-19T01:01:43.394Z,101365.56
2023-06-19T01:05:08.258Z,101360.69
2023-06-19T01:08:40.264Z,101362.88
2023-06-19T01:12:00.947Z,101362.56
2023-06-19T01:15:19.287Z,101361.72
2023-06-19T01:18:43.234Z,101357.41
2023-06-19T01:22:06.292Z,101358.53
2023-06-19T01:25:30.224Z,101353.94
2023-06-19T01:28:59.301Z,101346.47
2023-06-19T01:32:29.270Z,101344.41
2023-06-19T01:35:56.333Z,101338.66
2023-06-19T01:39:20.236Z,101328.09
2023-06-19T01:42:43.297Z,101341.78
2023-06-19T01:46:07.302Z,101333.16
2023-06-19T01:49:30.262Z,101319.03
2023-06-19T01:52:57.290Z,101316.00
2023-06-19T01:56:20.264Z,101310.56
2023-06-19T01:59:43.308Z,101317.03
2023-06-19T02:03:07.395Z,101314.38
2023-06-19T02:06:32.306Z,101318.06
2023-06-19T02:09:57.292Z,101309.50
2023-06-19T02:13:21.505Z,101316.28
2023-06-19T02:16:47.329Z,101312.06
2023-06-19T02:20:14.372Z,101306.47
2023-06-19T02:23:38.351Z,101310.84
2023-06-19T02:27:02.391Z,101306.50
2023-06-19T02:30:25.581Z,101309.50
2023-06-19T02:33:49.348Z,101302.13
2023-06-19T02:37:12.306Z,101305.06
2023-06-19T02:40:35.373Z,101315.41
2023-06-19T02:44:01.373Z,101319.84
2023-06-19T02:47:25.371Z,101319.38
2023-06-19T02:50:48.278Z,101316.75
2023-06-19T02:54:12.349Z,101311.81
2023-06-19T02:57:35.330Z,101322.03
2023-06-19T03:00:59.389Z,101311.25
2023-06-19T03:04:23.302Z,101317.63
2023-06-19T03:07:47.352Z,101316.72
2023-06-19T03:11:14.350Z,101319.22
2023-06-19T03:14:37.322Z,101314.09
2023-06-19T03:18:02.432Z,101328.31
2023-06-19T03:21:31.309Z,101326.47
2023-06-19T03:24:54.310Z,101325.50
2023-06-19T03:28:19.366Z,101331.09
2023-06-19T03:31:43.291Z,101325.13
2023-06-19T03:35:08.326Z,101332.34
2023-06-19T03:38:34.346Z,101333.41
2023-06-19T03:41:59.290Z,101334.09
2023-06-19T03:45:23.336Z,101331.09
2023-06-19T03:48:47.304Z,101337.13
2023-06-19T03:52:12.348Z,101344.78
2023-06-19T03:55:36.284Z,101349.94
2023-06-19T03:59:02.495Z,101352.28
2023-06-19T04:02:27.364Z,101345.22
2023-06-19T04:05:51.349Z,101348.53
2023-06-19T04:09:15.333Z,101356.47
2023-06-19T04:12:38.373Z,101354.81
2023-06-19T04:16:03.340Z,101352.25
2023-06-19T04:19:28.314Z,101361.25
2023-06-19T04:22:51.317Z,101364.53
2023-06-19T04:26:14.331Z,101363.25
2023-06-19T04:29:40.333Z,101368.50
2023-06-19T04:33:03.513Z,101370.31
2023-06-19T04:36:27.513Z,101376.53
2023-06-19T04:39:51.356Z,101373.91
2023-06-19T04:43:17.356Z,101377.28
2023-06-19T04:46:40.453Z,101382.44
2023-06-19T04:50:04.382Z,101383.94
2023-06-19T04:53:28.327Z,101384.91
2023-06-19T04:56:51.365Z,101398.97
2023-06-19T05:00:15.332Z,101400.44
2023-06-19T05:03:38.540Z,101406.66
2023-06-19T05:07:02.336Z,101407.03
2023-06-19T05:10:26.674Z,101408.31
2023-06-19T05:13:50.340Z,101404.41
2023-06-19T05:17:14.457Z,101415.72
2023-06-19T05:20:38.404Z,101417.66
2023-06-19T05:24:02.608Z,101409.75
2023-06-19T05:27:35.342Z,101408.41
2023-06-19T05:30:59.397Z,101408.19
2023-06-19T05:34:23.376Z,101412.06
2023-06-19T05:37:47.397Z,101411.16
2023-06-19T05:41:10.340Z,101418.81
2023-06-19T05:44:33.535Z,101418.44
2023-06-19T05:47:57.427Z,101424.91
2023-06-19T05:51:21.408Z,101425.41
2023-06-19T05:54:44.438Z,101440.47
2023-06-19T05:58:08.368Z,101443.19
2023-06-19T06:01:33.399Z,101440.13
2023-06-19T06:04:56.615Z,101442.13
2023-06-19T06:08:21.386Z,101442.47
2023-06-19T06:11:45.406Z,101440.59
2023-06-19T06:15:09.388Z,101445.78
2023-06-19T06:18:34.379Z,101451.16
2023-06-19T06:21:58.364Z,101457.28
2023-06-19T06:25:21.416Z,101463.47
2023-06-19T06:28:45.392Z,101469.09
2023-06-19T06:32:19.429Z,101466.91
2023-06-19T06:35:44.381Z,101471.97
2023-06-19T06:39:08.425Z,101468.75
2023-06-19T06:42:32.388Z,101471.69
2023-06-19T06:45:56.425Z,101477.78
2023-06-19T06:49:20.403Z,101476.63
2023-06-19T06:52:44.386Z,101478.63
2023-06-19T06:56:09.374Z,101487.84
2023-06-19T06:59:35.435Z,101493.50
2023-06-19T07:02:59.481Z,101487.38
2023-06-19T07:06:24.431Z,101494.50
2023-06-19T07:09:48.419Z,101500.28
2023-06-19T07:13:13.428Z,101503.84
2023-06-19T07:16:37.451Z,101501.03
2023-06-19T07:19:55.332Z,101507.22
2023-06-19T07:23:15.473Z,101507.16
2023-06-19T07:26:40.386Z,101504.78
2023-06-19T07:30:03.515Z,101507.91
2023-06-19T07:33:26.417Z,101501.63
2023-06-19T07:36:50.430Z,101507.00
2023-06-19T07:40:13.421Z,101503.09
2023-06-19T07:43:36.536Z,101513.59
2023-06-19T07:46:59.402Z,101509.84
2023-06-19T07:50:26.296Z,101512.97
2023-06-19T07:53:52.449Z,101520.94
2023-06-19T07:57:17.388Z,101526.97
2023-06-19T08:00:34.468Z,101520.59
2023-06-19T08:03:58.471Z,101516.50
2023-06-19T08:07:22.601Z,101519.53
2023-06-19T08:10:45.429Z,101521.53
2023-06-19T08:14:08.462Z,101528.47
2023-06-19T08:17:33.437Z,101528.84
2023-06-19T08:20:58.424Z,101523.97
2023-06-19T08:24:22.456Z,101528.31
2023-06-19T08:27:45.461Z,101532.63
2023-06-19T08:31:08.444Z,101535.41
2023-06-19T08:34:31.434Z,101543.06
2023-06-19T08:37:54.468Z,101546.19
2023-06-19T08:41:17.466Z,101547.47
2023-06-19T08:44:42.454Z,101559.03
2023-06-19T08:48:05.518Z,101558.69
2023-06-19T08:51:30.447Z,101552.28
2023-06-19T08:54:55.425Z,101549.59
2023-06-19T08:58:19.456Z,101547.72
2023-06-19T09:01:43.441Z,101562.41
2023-06-19T09:05:06.492Z,101568.78
2023-06-19T09:08:31.439Z,101575.19
2023-06-19T09:11:54.480Z,101571.69
2023-06-19T09:15:18.423Z,101578.50
2023-06-19T09:18:42.498Z,101586.59
2023-06-19T09:22:02.038Z,101583.66
2023-06-19T09:25:27.632Z,101577.25
2023-06-19T09:28:59.450Z,101578.09
2023-06-19T09:32:32.496Z,101572.75
2023-06-19T09:35:56.445Z,101573.34
2023-06-19T09:39:19.463Z,101566.34
2023-06-19T09:42:51.483Z,101566.13
2023-06-19T09:46:20.463Z,101576.66
2023-06-19T09:49:44.477Z,101577.88
2023-06-19T09:53:08.492Z,101574.38
2023-06-19T09:56:33.464Z,101579.09
2023-06-19T09:59:59.954Z,101573.34
2023-06-19T10:03:29.582Z,101584.72
2023-06-19T10:07:06.492Z,101588.00
2023-06-19T10:10:43.440Z,101594.03
2023-06-19T10:14:07.523Z,101595.47
2023-06-19T10:17:34.540Z,101589.44
2023-06-19T10:21:00.468Z,101593.19
2023-06-19T10:24:24.248Z,101584.09
2023-06-19T10:27:53.510Z,101585.09
2023-06-19T10:31:27.471Z,101578.91
2023-06-19T10:34:53.535Z,101588.84
2023-06-19T10:38:19.542Z,101592.34
2023-06-19T10:41:43.463Z,101600.59
2023-06-19T10:45:07.531Z,101603.03
2023-06-19T10:48:36.505Z,101606.38
2023-06-19T10:52:07.524Z,101611.47
2023-06-19T10:55:30.503Z,101609.25
2023-06-19T10:58:55.512Z,101582.41
2023-06-19T11:02:19.650Z,101605.50
2023-06-19T11:05:44.502Z,101611.75
2023-06-19T11:09:09.492Z,101610.53
2023-06-19T11:12:45.484Z,101617.50
2023-06-19T11:16:08.503Z,101621.41
2023-06-19T11:19:35.675Z,101628.03
2023-06-19T11:23:00.491Z,101616.59
2023-06-19T11:26:28.300Z,101623.25
2023-06-19T11:29:53.520Z,101620.25
2023-06-19T11:33:18.554Z,101636.44
2023-06-19T11:36:42.518Z,101631.44
2023-06-19T11:40:06.574Z,101629.09
2023-06-19T11:43:46.492Z,101621.00
2023-06-19T11:47:13.572Z,101623.13
2023-06-19T11:50:44.495Z,101620.16
2023-06-19T11:54:07.597Z,101615.66
2023-06-19T11:57:30.492Z,101627.09
2023-06-19T12:00:53.552Z,101631.03
2023-06-19T12:04:18.700Z,101631.38
2023-06-19T12:07:41.761Z,101633.88
2023-06-19T12:11:05.470Z,101626.59
2023-06-19T12:14:29.559Z,101627.38
2023-06-19T12:17:52.509Z,101630.09
2023-06-19T12:21:32.749Z,101630.03
2023-06-19T12:24:58.535Z,101631.34
2023-06-19T12:28:27.576Z,101630.41
2023-06-19T12:31:52.515Z,101630.75
2023-06-19T12:35:16.549Z,101631.28
2023-06-19T12:38:40.532Z,101633.13
2023-06-19T12:42:04.545Z,101647.97
2023-06-19T12:45:28.550Z,101634.28
2023-06-19T12:48:51.732Z,101645.59
2023-06-19T12:52:15.547Z,101642.34
2023-06-19T12:55:52.569Z,101633.97
2023-06-19T12:59:24.509Z,101627.19
2023-06-19T13:02:48.647Z,101622.50
2023-06-19T13:06:12.544Z,101619.94
2023-06-19T13:09:35.538Z,101609.44
2023-06-19T13:12:58.542Z,101613.72
2023-06-19T13:16:44.641Z,101616.75
2023-06-19T13:20:16.016Z,101611.56
2023-06-19T13:23:41.558Z,101606.56
2023-06-19T13:27:05.557Z,101609.56
2023-06-19T13:30:30.581Z,101607.56
2023-06-19T13:33:56.553Z,101609.94
2023-06-19T13:37:19.717Z,101607.84
2023-06-19T13:40:43.524Z,101605.91
2023-06-19T13:44:07.594Z,101602.41
2023-06-19T13:47:34.576Z,101604.38
2023-06-19T13:50:58.577Z,101598.13
2023-06-19T13:54:22.505Z,101605.97
2023-06-19T13:57:49.680Z,101616.84
2023-06-19T14:01:12.593Z,101616.50
2023-06-19T14:04:35.550Z,101609.25
2023-06-19T14:08:00.530Z,101609.50
2023-06-19T14:11:27.584Z,101613.47
2023-06-19T14:14:50.622Z,101607.88
2023-06-19T14:18:15.596Z,101602.25
2023-06-19T14:21:39.541Z,101610.47
2023-06-19T14:25:08.725Z,101619.72
2023-06-19T14:28:32.536Z,101618.03
2023-06-19T14:31:56.578Z,101618.59
2023-06-19T14:35:21.542Z,101612.38
2023-06-19T14:38:45.596Z,101619.94
2023-06-19T14:42:09.659Z,101617.19
2023-06-19T14:45:32.586Z,101611.78
2023-06-19T14:48:56.621Z,101616.91
2023-06-19T14:52:21.583Z,101614.47
2023-06-19T14:55:52.595Z,101615.44
2023-06-19T14:59:16.543Z,101614.19
2023-06-19T15:02:41.407Z,101612.91
2023-06-19T15:06:04.539Z,101606.44
2023-06-19T15:09:28.591Z,101605.63
2023-06-19T15:12:52.577Z,101599.44
2023-06-19T15:16:16.615Z,101598.56
2023-06-19T15:19:41.592Z,101599.78
2023-06-19T15:23:06.618Z,101591.44
2023-06-19T15:26:29.573Z,101594.28
2023-06-19T15:29:53.583Z,101591.59
2023-06-19T15:33:11.147Z,101587.91
2023-06-19T15:36:29.592Z,101584.78
2023-06-19T15:39:53.581Z,101586.03
2023-06-19T15:43:16.596Z,101578.34
2023-06-19T15:46:40.684Z,101562.94
2023-06-19T15:50:04.587Z,101580.34
2023-06-19T15:53:28.611Z,101579.72
2023-06-19T15:56:55.774Z,101576.69
2023-06-19T16:00:22.786Z,101577.47
2023-06-19T16:03:49.317Z,101574.56
2023-06-19T16:07:13.612Z,101567.28
2023-06-19T16:10:37.616Z,101586.47
2023-06-19T16:14:01.601Z,101576.97
2023-06-19T16:17:24.815Z,101575.06
2023-06-19T16:20:48.606Z,101571.88
2023-06-19T16:24:11.783Z,101570.03
2023-06-19T16:27:35.576Z,101565.56
2023-06-19T16:30:59.640Z,101569.09
2023-06-19T16:34:22.733Z,101565.91
2023-06-19T16:37:46.566Z,101565.03
2023-06-19T16:41:10.783Z,101566.75
2023-06-19T16:44:35.560Z,101568.19
2023-06-19T16:47:59.656Z,101562.91
2023-06-19T16:51:23.574Z,101560.41
2023-06-19T16:54:47.665Z,101551.94
2023-06-19T16:58:14.611Z,101553.31
2023-06-19T17:01:37.869Z,101556.56
2023-06-19T17:05:02.612Z,101553.66
2023-06-19T17:08:27.783Z,101558.03
2023-06-19T17:11:53.637Z,101565.41
2023-06-19T17:15:17.677Z,101574.44
2023-06-19T17:18:41.621Z,101570.38
2023-06-19T17:22:06.822Z,101561.75
2023-06-19T17:25:29.622Z,101577.72
2023-06-19T17:28:52.644Z,101559.78
2023-06-19T17:32:17.664Z,101571.44
2023-06-19T17:35:40.626Z,101574.72
2023-06-19T17:39:06.232Z,101575.06
2023-06-19T17:42:30.658Z,101587.25
2023-06-19T17:45:54.637Z,101588.19
2023-06-19T17:49:19.562Z,101586.34
2023-06-19T17:52:43.626Z,101593.06
2023-06-19T17:56:11.674Z,101593.56
2023-06-19T17:59:34.624Z,101588.94
2023-06-19T18:02:58.712Z,101592.06
2023-06-19T18:06:24.654Z,101608.34
2023-06-19T18:09:47.624Z,101603.34
2023-06-19T18:13:13.616Z,101606.44
2023-06-19T18:16:38.589Z,101604.75
2023-06-19T18:20:03.676Z,101617.72
2023-06-19T18:23:28.507Z,101605.59
2023-06-19T18:26:53.613Z,101612.44
2023-06-19T18:30:17.698Z,101615.94
2023-06-19T18:33:41.644Z,101612.22
2023-06-19T18:37:06.668Z,101607.91
2023-06-19T18:40:32.229Z,101621.06
2023-06-19T18:43:59.620Z,101628.75
2023-06-19T18:47:24.629Z,101637.31
2023-06-19T18:50:50.698Z,101625.56
2023-06-19T18:54:14.647Z,101639.47
2023-06-19T18:57:38.685Z,101639.47
2023-06-19T19:01:05.128Z,101628.63
2023-06-19T19:04:30.841Z,101638.34
2023-06-19T19:07:55.638Z,101636.88
2023-06-19T19:11:18.844Z,101641.81
2023-06-19T19:14:43.637Z,101648.47
2023-06-19T19:18:06.701Z,101651.22
2023-06-19T19:21:30.624Z,101653.94
2023-06-19T19:24:56.692Z,101651.47
2023-06-19T19:28:23.671Z,101641.59
2023-06-19T19:31:48.678Z,101644.22
2023-06-19T19:35:12.713Z,101649.75
2023-06-19T19:38:36.762Z,101652.19
2023-06-19T19:42:00.705Z,101657.22
2023-06-19T19:45:23.686Z,101659.13
2023-06-19T19:48:46.654Z,101657.66
2023-06-19T19:52:11.683Z,101662.91
2023-06-19T19:55:35.640Z,101664.63
2023-06-19T19:58:59.672Z,101669.31
2023-06-19T20:02:22.744Z,101682.69
2023-06-19T20:05:48.611Z,101679.94
2023-06-19T20:09:11.643Z,101679.41
2023-06-19T20:12:35.830Z,101688.75
2023-06-19T20:15:59.704Z,101689.38
2023-06-19T20:19:26.780Z,101672.72
2023-06-19T20:22:50.664Z,101682.41
2023-06-19T20:26:15.801Z,101679.97
2023-06-19T20:29:39.660Z,101687.41
2023-06-19T20:33:02.837Z,101690.13
2023-06-19T20:36:25.683Z,101698.63
2023-06-19T20:39:50.754Z,101701.59
2023-06-19T20:43:19.652Z,101695.91
2023-06-19T20:46:43.809Z,101708.19
2023-06-19T20:50:07.679Z,101704.69
2023-06-19T20:53:31.715Z,101703.88
2023-06-19T20:56:54.692Z,101714.19
2023-06-19T21:00:19.709Z,101709.69
2023-06-19T21:03:42.721Z,101716.34
2023-06-19T21:07:05.697Z,101694.56
2023-06-19T21:10:28.862Z,101690.03
2023-06-19T21:13:51.727Z,101683.09
2023-06-19T21:17:14.681Z,101674.16
2023-06-19T21:20:38.790Z,101691.41
2023-06-19T21:24:01.716Z,101680.63
2023-06-19T21:27:24.737Z,101672.41
2023-06-19T21:30:48.687Z,101685.28
2023-06-19T21:34:12.735Z,101685.72
2023-06-19T21:37:35.682Z,101682.34
2023-06-19T21:41:00.730Z,101679.25
2023-06-19T21:44:27.441Z,101680.91
2023-06-19T21:47:51.300Z,101688.19
2023-06-19T21:51:15.692Z,101688.63
2023-06-19T21:54:38.870Z,101685.13
2023-06-19T21:58:01.726Z,101683.06
2023-06-19T22:01:24.707Z,101680.75
2023-06-19T22:04:48.733Z,101688.34
2023-06-19T22:08:13.760Z,101685.53
2023-06-19T22:11:36.698Z,101690.41
2023-06-19T22:15:00.844Z,101689.25
2023-06-19T22:18:26.711Z,101692.28
2023-06-19T22:21:53.904Z,101692.06
2023-06-19T22:25:17.720Z,101694.97
2023-06-19T22:28:41.850Z,101689.19
2023-06-19T22:32:05.720Z,101687.59
2023-06-19T22:35:31.429Z,101680.69
2023-06-19T22:38:57.728Z,101677.63
2023-06-19T22:42:24.839Z,101685.34
2023-06-19T22:45:48.792Z,101689.81
2023-06-19T22:49:12.897Z,101691.56
2023-06-19T22:52:41.741Z,101685.34
2023-06-19T22:56:06.762Z,101684.84
2023-06-19T22:59:29.716Z,101678.50
2023-06-19T23:03:00.936Z,101676.25
2023-06-19T23:06:24.711Z,101672.03
2023-06-19T23:09:49.755Z,101664.56
2023-06-19T23:13:13.704Z,101661.47
2023-06-19T23:16:37.768Z,101651.81
2023-06-19T23:20:06.759Z,101650.66
2023-06-19T23:23:31.754Z,101640.38
2023-06-19T23:26:57.746Z,101637.53
2023-06-19T23:30:20.910Z,101628.56
2023-06-19T23:33:44.748Z,101628.41
2023-06-19T23:37:07.764Z,101612.84
2023-06-19T23:40:30.758Z,101603.09
2023-06-19T23:43:53.919Z,101612.19
2023-06-19T23:47:18.762Z,101605.03
2023-06-19T23:50:44.877Z,101591.63
2023-06-19T23:54:08.757Z,101606.44
2023-06-19T23:57:32.775Z,101596.47
